Time;durP1;ratioP1;P1;durP2;ratioP2;P2;SDS_P1;SDS_P2;PMS_P1;PMS_P2;Temp;Humidity;BMP_temperature;BMP_pressure;BME280_temperature;BME280_humidity;BME280_pressure;Samples;Min_cycle;Max_cycle;Signal;HPM_P1;HPM_P2
2021/10/31 00:01:59;;;;;;;3.47;3.17;;;14.50;99.90;;;;;;4947249;28;20665;-84
2021/10/31 00:04:28;;;;;;;3.80;3.50;;;14.40;99.90;;;;;;4967784;28;20463;-85
2021/10/31 00:07:04;;;;;;;4.80;4.40;;;14.20;99.90;;;;;;4965317;28;20483;-84
2021/10/31 00:09:31;;;;;;;4.47;3.63;;;14.10;99.90;;;;;;4964458;28;20459;-83
2021/10/31 00:12:14;;;;;;;5.73;4.00;;;14.00;99.90;;;;;;4952587;28;20443;-86
2021/10/31 00:15:05;;;;;;;3.43;3.17;;;14.00;99.90;;;;;;4963198;28;20554;-85
2021/10/31 00:17:38;;;;;;;3.73;3.43;;;14.10;99.90;;;;;;4945076;28;20467;-84
2021/10/31 00:20:23;;;;;;;4.40;3.57;;;14.20;99.90;;;;;;4860843;28;21877;-84
2021/10/31 00:22:50;;;;;;;5.30;3.23;;;14.20;99.90;;;;;;4960531;28;20448;-84
2021/10/31 00:25:31;;;;;;;3.80;3.47;;;14.30;99.90;;;;;;4964372;28;20455;-83
2021/10/31 00:28:16;;;;;;;3.87;3.50;;;14.50;99.90;;;;;;4944951;28;20501;-83
2021/10/31 00:31:04;;;;;;;4.07;3.50;;;14.50;99.90;;;;;;4944728;28;21956;-84
2021/10/31 00:33:33;;;;;;;5.47;3.90;;;14.50;99.90;;;;;;4963728;28;20463;-83
2021/10/31 00:35:59;;;;;;;4.50;4.10;;;14.50;99.90;;;;;;4963587;23;20498;-84
2021/10/31 00:38:26;;;;;;;6.03;4.07;;;14.50;99.90;;;;;;4979721;28;20462;-83
2021/10/31 00:40:54;;;;;;;4.70;4.20;;;14.40;99.90;;;;;;4962356;28;20535;-84
2021/10/31 00:43:21;;;;;;;4.30;3.73;;;14.40;99.90;;;;;;4959460;28;20455;-85
2021/10/31 00:45:49;;;;;;;3.90;3.60;;;14.40;99.90;;;;;;4974259;28;20483;-83
2021/10/31 00:48:17;;;;;;;4.37;3.40;;;14.20;99.90;;;;;;4962816;28;20468;-83
2021/10/31 00:50:49;;;;;;;4.33;3.97;;;14.00;99.90;;;;;;4957791;28;20459;-84
2021/10/31 00:53:31;;;;;;;4.00;3.60;;;13.90;99.90;;;;;;4952699;28;20502;-84
2021/10/31 00:56:04;;;;;;;5.10;4.30;;;13.80;99.90;;;;;;4954258;28;20483;-84
2021/10/31 00:58:52;;;;;;;4.10;3.50;;;13.70;99.90;;;;;;4964406;28;20460;-84
2021/10/31 01:01:20;;;;;;;4.77;3.73;;;13.70;99.90;;;;;;4942909;28;20554;-83
2021/10/31 01:03:51;;;;;;;4.23;3.80;;;13.70;99.90;;;;;;4963971;28;20530;-83
2021/10/31 01:06:54;;;;;;;4.40;3.93;;;13.60;99.90;;;;;;4962893;28;20566;-84
2021/10/31 01:09:38;;;;;;;6.70;3.70;;;13.60;99.90;;;;;;4962777;28;20451;-84
2021/10/31 01:12:26;;;;;;;4.53;3.80;;;13.50;99.90;;;;;;4946070;28;20444;-83
2021/10/31 01:15:11;;;;;;;4.53;4.23;;;13.50;99.90;;;;;;4963319;28;20479;-83
2021/10/31 01:18:12;;;;;;;4.13;3.73;;;13.70;99.90;;;;;;4969033;28;20496;-84
2021/10/31 01:20:55;;;;;;;4.73;4.23;;;14.00;99.90;;;;;;4966672;28;20954;-84
2021/10/31 01:24:00;;;;;;;4.90;4.50;;;13.90;99.90;;;;;;4960185;28;20991;-85
2021/10/31 01:26:59;;;;;;;4.80;4.40;;;13.80;99.90;;;;;;4946929;28;20487;-82
2021/10/31 01:29:57;;;;;;;4.50;3.80;;;14.00;99.90;;;;;;4967631;28;20821;-84
2021/10/31 01:32:52;;;;;;;4.10;3.40;;;14.10;99.90;;;;;;4962369;28;20534;-84
2021/10/31 01:35:30;;;;;;;3.73;3.43;;;13.80;99.90;;;;;;4947964;28;20483;-84
2021/10/31 02:01:15;;;;;;;6.57;5.03;;;13.90;99.90;;;;;;5167526;22;20485;-85
2021/10/31 02:04:25;;;;;;;5.60;4.77;;;13.80;99.90;;;;;;4966143;28;20441;-84
2021/10/31 02:11:36;;;;;;;5.47;5.00;;;13.50;99.90;;;;;;4939444;28;20476;-84
2021/10/31 02:18:16;;;;;;;5.40;4.50;;;13.30;99.90;;;;;;5210258;22;20839;-84
2021/10/31 02:20:51;;;;;;;4.80;4.40;;;13.30;99.90;;;;;;4948229;28;20452;-83
2021/10/31 02:23:20;;;;;;;5.33;4.83;;;13.50;99.90;;;;;;4968008;28;20496;-84
2021/10/31 02:25:48;;;;;;;5.63;5.10;;;13.60;99.90;;;;;;4959116;28;20521;-81
2021/10/31 02:28:17;;;;;;;7.07;5.20;;;13.50;99.90;;;;;;4973167;28;20554;-82
2021/10/31 02:30:44;;;;;;;4.13;3.83;;;13.30;99.90;;;;;;4966945;28;20538;-82
2021/10/31 02:33:11;;;;;;;5.13;4.67;;;13.20;99.90;;;;;;4960748;28;20940;-83
2021/10/31 02:35:39;;;;;;;5.07;4.63;;;13.10;99.90;;;;;;4953494;28;20491;-84
2021/10/31 02:38:07;;;;;;;6.43;5.50;;;13.10;99.90;;;;;;4938965;28;20444;-83
2021/10/31 02:40:37;;;;;;;6.63;4.67;;;13.10;99.90;;;;;;4955101;28;20460;-83
2021/10/31 02:43:06;;;;;;;5.33;4.93;;;13.00;99.90;;;;;;4956023;28;20455;-84
2021/10/31 02:45:32;;;;;;;5.80;4.77;;;13.20;99.90;;;;;;4952468;28;20466;-81
2021/10/31 02:48:03;;;;;;;7.20;4.60;;;13.40;99.90;;;;;;4937544;28;20452;-80
2021/10/31 02:51:07;;;;;;;5.07;4.67;;;13.60;99.90;;;;;;4956584;28;20456;-84
2021/10/31 02:53:41;;;;;;;6.27;5.17;;;13.60;99.90;;;;;;4961527;28;20466;-84
2021/10/31 02:56:25;;;;;;;5.93;5.30;;;13.50;99.90;;;;;;4939817;28;20827;-84
2021/10/31 02:59:14;;;;;;;4.53;4.13;;;13.30;99.90;;;;;;4939896;28;20518;-83
2021/10/31 03:01:41;;;;;;;5.23;4.33;;;13.20;99.90;;;;;;4954205;28;20459;-85
2021/10/31 03:04:10;;;;;;;4.77;4.33;;;13.10;99.90;;;;;;4939403;28;20537;-84
2021/10/31 03:06:37;;;;;;;5.93;5.00;;;13.00;99.90;;;;;;4959011;28;21221;-84
2021/10/31 03:09:04;;;;;;;4.93;4.53;;;12.90;99.90;;;;;;4942870;28;20887;-84
2021/10/31 03:11:32;;;;;;;4.97;4.57;;;12.90;99.90;;;;;;4938879;28;20471;-83
2021/10/31 03:13:58;;;;;;;6.13;5.20;;;13.00;99.90;;;;;;4943158;28;20459;-84
2021/10/31 03:16:25;;;;;;;6.00;5.40;;;13.00;99.90;;;;;;4961626;28;21104;-85
2021/10/31 03:18:52;;;;;;;6.27;5.67;;;12.90;99.90;;;;;;4941201;28;20586;-83
2021/10/31 03:21:18;;;;;;;5.17;4.70;;;13.10;99.90;;;;;;4943993;28;20467;-84
2021/10/31 03:23:45;;;;;;;5.50;5.00;;;13.00;99.90;;;;;;4942140;28;20460;-84
2021/10/31 03:26:17;;;;;;;5.43;5.00;;;13.00;99.90;;;;;;4941003;28;21064;-84
2021/10/31 03:28:44;;;;;;;6.50;5.90;;;13.00;99.90;;;;;;4942461;28;20476;-83
2021/10/31 03:31:43;;;;;;;5.03;4.53;;;13.10;99.90;;;;;;4935233;28;20440;-83
2021/10/31 03:34:10;;;;;;;5.37;4.97;;;13.00;99.90;;;;;;4942637;28;20466;-83
2021/10/31 03:36:39;;;;;;;6.27;5.37;;;13.10;99.90;;;;;;4967016;28;20483;-83
2021/10/31 03:39:08;;;;;;;9.73;5.40;;;13.20;99.90;;;;;;4958894;28;20902;-81
2021/10/31 03:41:36;;;;;;;7.63;5.40;;;13.10;99.90;;;;;;4951694;28;22672;-84
2021/10/31 03:44:04;;;;;;;5.30;4.90;;;13.10;99.90;;;;;;4945864;28;21931;-83
2021/10/31 03:46:32;;;;;;;6.10;5.60;;;13.00;99.90;;;;;;4935603;28;20638;-83
2021/10/31 03:48:59;;;;;;;5.67;5.17;;;13.00;99.90;;;;;;4961735;28;21959;-83
2021/10/31 03:51:27;;;;;;;5.80;5.30;;;13.00;99.90;;;;;;4939663;28;20551;-82
2021/10/31 03:53:54;;;;;;;6.33;5.70;;;13.00;99.90;;;;;;4953846;28;22597;-84
2021/10/31 03:56:21;;;;;;;7.93;7.13;;;13.10;99.90;;;;;;4941600;28;20494;-83
2021/10/31 03:58:49;;;;;;;6.70;6.10;;;13.30;99.90;;;;;;4947261;28;20495;-83
2021/10/31 04:01:16;;;;;;;6.93;6.33;;;13.40;99.90;;;;;;4956543;28;20463;-81
2021/10/31 04:03:44;;;;;;;6.80;6.20;;;13.40;99.90;;;;;;4941187;28;20750;-82
2021/10/31 04:06:14;;;;;;;8.83;6.87;;;13.20;99.90;;;;;;4938810;28;20488;-83
2021/10/31 04:08:41;;;;;;;7.00;6.40;;;13.30;99.90;;;;;;4938608;28;22038;-84
2021/10/31 04:11:34;;;;;;;7.37;6.00;;;13.10;99.90;;;;;;4925341;28;20483;-82
2021/10/31 04:14:00;;;;;;;7.13;6.43;;;12.90;99.90;;;;;;4957326;28;20452;-82
2021/10/31 04:16:39;;;;;;;5.73;5.23;;;12.80;99.90;;;;;;4955383;28;20488;-83
2021/10/31 04:19:15;;;;;;;5.20;4.80;;;12.70;99.90;;;;;;4955529;28;20474;-83
2021/10/31 04:21:42;;;;;;;7.00;5.20;;;12.80;99.90;;;;;;4941913;28;20459;-81
2021/10/31 04:24:10;;;;;;;5.83;5.20;;;12.90;99.90;;;;;;4939509;28;20483;-81
2021/10/31 04:26:43;;;;;;;5.93;5.43;;;13.00;99.90;;;;;;4954967;28;20486;-82
2021/10/31 04:29:21;;;;;;;6.13;5.60;;;13.00;99.90;;;;;;4939376;28;20525;-84
2021/10/31 04:31:52;;;;;;;7.70;6.83;;;13.10;99.90;;;;;;4956608;28;21075;-83
2021/10/31 04:34:24;;;;;;;6.10;5.50;;;13.00;99.90;;;;;;4258905;28;10000778;-83
2021/10/31 04:36:55;;;;;;;6.00;5.40;;;12.80;99.90;;;;;;4955915;28;20618;-84
2021/10/31 04:39:22;;;;;;;5.67;5.17;;;12.90;99.90;;;;;;4959232;28;20463;-83
2021/10/31 04:42:10;;;;;;;6.20;5.70;;;13.10;99.90;;;;;;4948607;28;22840;-85
2021/10/31 04:44:44;;;;;;;6.90;6.20;;;13.20;99.90;;;;;;4962593;28;20464;-84
2021/10/31 04:47:14;;;;;;;6.87;6.17;;;13.20;99.90;;;;;;4942449;28;20478;-84
2021/10/31 04:49:51;;;;;;;6.17;5.63;;;13.20;99.90;;;;;;4951573;28;20463;-85
2021/10/31 04:52:23;;;;;;;5.33;4.83;;;13.00;99.90;;;;;;4977207;28;20444;-83
2021/10/31 04:54:52;;;;;;;5.77;5.20;;;12.80;99.90;;;;;;4965057;28;20474;-83
2021/10/31 04:57:19;;;;;;;6.10;5.50;;;13.00;99.90;;;;;;4974562;28;20465;-83
2021/10/31 04:59:49;;;;;;;6.43;5.83;;;13.10;99.90;;;;;;4952728;28;20451;-83
2021/10/31 05:02:29;;;;;;;6.60;6.07;;;13.00;99.90;;;;;;4942950;28;20462;-82
2021/10/31 05:05:02;;;;;;;5.83;5.33;;;12.90;99.90;;;;;;4958088;28;20541;-81
2021/10/31 05:08:04;;;;;;;6.37;5.80;;;12.90;99.90;;;;;;4956497;28;20479;-82
2021/10/31 05:10:31;;;;;;;7.57;5.67;;;12.70;99.90;;;;;;4939046;28;20567;-82
2021/10/31 05:13:01;;;;;;;5.80;5.30;;;12.90;99.90;;;;;;4954704;28;20455;-83
2021/10/31 05:15:33;;;;;;;5.60;5.10;;;12.70;99.90;;;;;;4937343;28;20480;-84
2021/10/31 05:18:02;;;;;;;5.40;5.00;;;12.60;99.90;;;;;;4942325;28;21936;-84
2021/10/31 05:20:33;;;;;;;5.77;5.20;;;12.60;99.90;;;;;;4937415;28;20468;-83
2021/10/31 05:23:08;;;;;;;5.20;4.70;;;12.60;99.90;;;;;;4951807;28;20467;-84
2021/10/31 05:25:35;;;;;;;5.33;4.87;;;12.50;99.90;;;;;;4955970;28;20531;-84
2021/10/31 05:28:06;;;;;;;6.80;5.37;;;12.60;99.90;;;;;;4961019;28;20558;-84
2021/10/31 05:30:37;;;;;;;5.67;5.17;;;12.80;99.90;;;;;;4944832;28;20466;-83
2021/10/31 05:33:20;;;;;;;7.20;5.63;;;13.00;99.90;;;;;;4913768;28;20452;-85
2021/10/31 05:35:47;;;;;;;6.30;5.40;;;13.00;99.90;;;;;;5022857;22;21056;-84
2021/10/31 05:38:18;;;;;;;6.13;5.37;;;13.00;99.90;;;;;;4962467;28;20490;-84
2021/10/31 05:40:58;;;;;;;6.27;5.73;;;12.80;99.90;;;;;;4969706;28;20543;-85
2021/10/31 05:43:49;;;;;;;5.93;5.43;;;12.70;99.90;;;;;;4971226;28;21247;-85
2021/10/31 05:46:26;;;;;;;;;;;;;;;;;;;;;
2021/10/31 05:49:08;;;;;;;7.40;6.33;;;12.50;99.90;;;;;;4984806;28;20939;-84
2021/10/31 05:51:35;;;;;;;5.47;4.93;;;12.40;99.90;;;;;;4965871;28;20470;-85
2021/10/31 05:54:16;;;;;;;5.67;4.80;;;12.40;99.90;;;;;;4967630;28;20443;-85
2021/10/31 05:56:43;;;;;;;5.60;5.10;;;12.40;99.90;;;;;;4984771;23;20511;-85
2021/10/31 05:59:23;;;;;;;4.80;4.30;;;12.40;99.90;;;;;;4943486;28;20460;-84
2021/10/31 06:01:59;;;;;;;5.80;5.10;;;12.40;99.90;;;;;;4947747;28;20479;-85
2021/10/31 06:04:28;;;;;;;4.67;4.23;;;12.40;99.90;;;;;;4947505;28;20467;-85
2021/10/31 06:07:11;;;;;;;4.90;4.50;;;12.40;99.90;;;;;;4970374;23;20492;-85
2021/10/31 06:10:09;;;;;;;4.90;4.47;;;12.50;99.90;;;;;;4967931;28;20464;-84
2021/10/31 06:13:02;;;;;;;5.80;4.40;;;12.50;99.90;;;;;;4967171;28;20456;-85
2021/10/31 06:15:31;;;;;;;5.03;4.37;;;12.30;99.90;;;;;;4964581;28;20560;-84
2021/10/31 06:18:02;;;;;;;4.57;4.17;;;12.30;99.90;;;;;;4970299;28;20455;-84
2021/10/31 06:23:26;;;;;;;4.50;4.10;;;12.20;99.90;;;;;;4979426;28;20459;-84
2021/10/31 06:25:53;;;;;;;4.00;3.60;;;12.20;99.90;;;;;;4977738;28;20487;-85
2021/10/31 06:28:19;;;;;;;4.40;3.97;;;12.20;99.90;;;;;;4955680;28;20965;-84
2021/10/31 06:30:50;;;;;;;4.47;4.07;;;12.20;99.90;;;;;;4970180;28;20463;-85
2021/10/31 06:33:49;;;;;;;3.60;3.30;;;12.30;99.90;;;;;;4953496;28;20482;-85
2021/10/31 06:36:16;;;;;;;3.80;3.50;;;12.30;99.90;;;;;;4968737;28;20521;-86
2021/10/31 06:38:57;;;;;;;4.10;3.80;;;12.30;99.90;;;;;;4966833;28;21145;-85
2021/10/31 06:41:35;;;;;;;3.10;2.90;;;12.30;99.90;;;;;;4945821;28;20455;-85
2021/10/31 06:44:25;;;;;;;3.10;2.80;;;12.20;99.90;;;;;;4950773;28;20923;-84
2021/10/31 06:47:01;;;;;;;3.03;2.83;;;12.30;99.90;;;;;;4954030;28;20991;-86
2021/10/31 06:49:40;;;;;;;4.20;3.07;;;12.40;99.90;;;;;;4969596;28;20485;-85
2021/10/31 06:52:27;;;;;;;3.57;3.27;;;12.60;99.90;;;;;;4943847;28;20459;-87
2021/10/31 06:54:54;;;;;;;3.40;3.13;;;12.80;99.90;;;;;;4951842;28;20461;-86
2021/10/31 06:57:41;;;;;;;4.53;3.27;;;12.80;99.90;;;;;;4968572;28;22337;-85
2021/10/31 07:00:14;;;;;;;3.20;2.90;;;12.80;99.90;;;;;;4953681;28;22174;-85
2021/10/31 07:03:03;;;;;;;7.83;3.70;;;12.70;99.90;;;;;;4962021;28;20452;-86
2021/10/31 07:06:34;;;;;;;3.70;3.50;;;12.70;99.90;;;;;;4957014;28;20554;-85
2021/10/31 07:12:00;;;;;;;3.90;3.53;;;12.70;99.90;;;;;;4970601;28;20474;-84
2021/10/31 07:14:27;;;;;;;3.90;3.17;;;12.80;99.90;;;;;;4966699;28;20470;-84
2021/10/31 07:17:08;;;;;;;10.83;4.03;;;12.80;99.90;;;;;;4968842;23;20527;-86
2021/10/31 07:19:43;;;;;;;3.73;3.43;;;13.00;99.90;;;;;;4950026;28;20451;-86
2021/10/31 07:22:17;;;;;;;3.17;2.90;;;13.20;99.90;;;;;;4934842;28;20543;-85
2021/10/31 07:25:47;;;;;;;3.43;3.13;;;13.10;99.90;;;;;;4898349;28;20465;-86
2021/10/31 07:28:32;;;;;;;3.20;3.00;;;13.60;99.90;;;;;;4938715;28;20523;-85
2021/10/31 07:31:37;;;;;;;3.33;3.00;;;13.70;99.90;;;;;;4937387;28;20449;-85
2021/10/31 07:34:39;;;;;;;3.60;3.30;;;14.00;99.90;;;;;;4937008;28;20517;-85
2021/10/31 07:40:34;;;;;;;3.70;3.07;;;13.70;99.90;;;;;;4950724;28;22303;-85
2021/10/31 07:43:18;;;;;;;3.83;3.53;;;13.40;99.90;;;;;;4945945;28;20455;-85
2021/10/31 07:46:07;;;;;;;3.93;3.50;;;13.30;99.90;;;;;;4932577;28;21846;-84
2021/10/31 07:48:34;;;;;;;3.50;3.20;;;13.40;99.90;;;;;;4933011;28;20551;-84
2021/10/31 07:51:18;;;;;;;3.47;3.20;;;13.40;99.90;;;;;;4905427;28;20468;-84
2021/10/31 07:53:45;;;;;;;3.83;3.30;;;13.40;99.90;;;;;;4947180;28;20529;-84
2021/10/31 07:56:25;;;;;;;3.60;3.30;;;13.20;99.90;;;;;;4979733;23;21370;-85
2021/10/31 07:58:55;;;;;;;6.07;4.50;;;13.20;99.90;;;;;;4926689;28;20477;-84
2021/10/31 08:01:46;;;;;;;3.13;2.93;;;13.20;99.90;;;;;;4924391;28;20469;-85
2021/10/31 08:04:22;;;;;;;3.50;3.20;;;13.20;99.90;;;;;;4913230;28;20488;-84
2021/10/31 08:07:41;;;;;;;3.67;3.40;;;13.10;99.90;;;;;;4991946;23;20500;-84
2021/10/31 08:14:02;;;;;;;4.27;3.50;;;13.00;99.90;;;;;;4856257;29;20489;-84
2021/10/31 08:16:56;;;;;;;3.60;3.30;;;13.00;99.90;;;;;;4943002;23;21306;-85
2021/10/31 08:19:28;;;;;;;3.30;3.00;;;13.20;99.90;;;;;;4915078;29;20549;-85
2021/10/31 08:22:04;;;;;;;3.83;3.43;;;13.40;99.90;;;;;;4914154;29;20870;-83
2021/10/31 08:24:34;;;;;;;4.13;3.67;;;13.60;99.90;;;;;;4911302;29;20461;-84
2021/10/31 08:31:28;;;;;;;4.83;3.00;;;13.70;99.90;;;;;;4908140;29;20758;-85
2021/10/31 08:34:21;;;;;;;4.23;3.83;;;13.80;99.90;;;;;;4908351;28;20470;-85
2021/10/31 08:37:02;;;;;;;3.90;3.60;;;13.70;99.90;;;;;;4897205;29;20490;-85
2021/10/31 08:39:46;;;;;;;4.10;3.80;;;13.90;99.90;;;;;;4895305;29;20578;-86
2021/10/31 08:42:23;;;;;;;3.60;3.30;;;13.90;99.90;;;;;;4891659;29;20561;-86
2021/10/31 08:44:53;;;;;;;4.10;3.80;;;13.80;99.90;;;;;;4891487;29;20470;-86
2021/10/31 08:47:25;;;;;;;3.97;3.60;;;13.90;99.90;;;;;;4907306;29;20530;-85
2021/10/31 08:50:04;;;;;;;4.30;4.00;;;14.00;99.90;;;;;;4907850;29;20474;-86
2021/10/31 08:52:42;;;;;;;3.73;3.43;;;14.10;99.90;;;;;;4908791;29;20474;-86
2021/10/31 08:55:31;;;;;;;3.53;3.27;;;14.10;99.90;;;;;;4902392;29;20496;-87
2021/10/31 08:58:03;;;;;;;3.70;3.43;;;14.20;99.90;;;;;;4917927;29;20775;-85
2021/10/31 09:00:44;;;;;;;3.70;3.40;;;14.40;99.90;;;;;;4889152;29;21020;-86
2021/10/31 09:04:00;;;;;;;4.27;3.73;;;14.30;99.90;;;;;;4899906;29;20517;-86
2021/10/31 09:06:36;;;;;;;4.07;3.77;;;14.10;99.90;;;;;;4903213;29;20513;-85
2021/10/31 09:09:24;;;;;;;4.23;3.90;;;14.00;99.90;;;;;;4922551;29;20450;-87
2021/10/31 09:11:51;;;;;;;5.20;4.70;;;14.00;99.90;;;;;;4899498;29;20458;-86
2021/10/31 09:14:23;;;;;;;4.30;3.90;;;14.20;99.90;;;;;;4895682;29;20471;-88
2021/10/31 09:17:15;;;;;;;3.57;3.30;;;14.10;99.90;;;;;;4914549;29;20498;-86
2021/10/31 09:19:42;;;;;;;6.43;4.00;;;14.20;99.90;;;;;;4889458;29;20830;-86
2021/10/31 09:22:19;;;;;;;4.23;3.50;;;14.50;99.90;;;;;;4896420;29;21303;-85
2021/10/31 09:25:10;;;;;;;3.83;3.53;;;14.60;99.90;;;;;;4896333;29;20489;-86
2021/10/31 09:27:43;;;;;;;4.00;3.70;;;14.40;99.90;;;;;;4895396;29;20513;-85
2021/10/31 09:30:38;;;;;;;5.13;4.33;;;14.60;99.90;;;;;;4908954;29;20595;-85
2021/10/31 09:33:19;;;;;;;5.27;4.80;;;14.70;99.90;;;;;;4892910;29;20463;-87
2021/10/31 09:36:12;;;;;;;4.30;3.90;;;14.60;99.90;;;;;;4895928;29;21323;-87
2021/10/31 09:38:53;;;;;;;4.30;4.00;;;14.60;99.90;;;;;;4892998;29;20542;-85
2021/10/31 09:41:30;;;;;;;4.67;4.27;;;14.70;99.90;;;;;;4895177;29;20880;-85
2021/10/31 09:44:14;;;;;;;6.27;5.70;;;14.90;99.90;;;;;;4896231;29;21438;-87
2021/10/31 09:47:01;;;;;;;4.43;4.00;;;15.20;99.90;;;;;;4891887;29;20571;-87
2021/10/31 09:50:10;;;;;;;5.17;4.13;;;15.30;99.90;;;;;;4909379;29;20517;-85
2021/10/31 09:52:37;;;;;;;4.83;4.27;;;15.50;99.90;;;;;;4890963;29;20463;-85
2021/10/31 09:55:09;;;;;;;5.37;4.80;;;15.60;99.90;;;;;;4888879;29;22260;-85
2021/10/31 09:57:50;;;;;;;4.50;4.10;;;15.70;99.90;;;;;;4906906;29;20491;-85
2021/10/31 10:00:44;;;;;;;4.03;3.70;;;15.80;99.90;;;;;;4893687;29;21535;-85
2021/10/31 10:03:35;;;;;;;4.70;4.13;;;15.80;99.90;;;;;;4891214;29;20962;-84
2021/10/31 10:06:25;;;;;;;4.20;3.80;;;16.20;99.90;;;;;;4911848;29;20474;-84
2021/10/31 10:09:15;;;;;;;4.60;4.30;;;16.30;99.90;;;;;;4908725;29;20509;-85
2021/10/31 10:12:28;;;;;;;4.80;4.50;;;16.20;99.90;;;;;;4894611;29;20429;-84
2021/10/31 10:15:11;;;;;;;5.17;4.63;;;16.10;99.90;;;;;;4890641;29;20450;-85
2021/10/31 10:17:53;;;;;;;3.80;3.50;;;16.00;99.90;;;;;;4995571;23;20494;-84
2021/10/31 10:20:26;;;;;;;5.67;5.27;;;16.10;99.90;;;;;;4952296;28;20466;-86
2021/10/31 10:23:15;;;;;;;4.10;3.80;;;16.10;99.90;;;;;;4954074;28;20469;-86
2021/10/31 10:30:56;;;;;;;3.80;3.50;;;16.10;99.90;;;;;;5137425;22;20502;-85
2021/10/31 10:33:49;;;;;;;4.80;3.60;;;16.20;99.90;;;;;;4956412;28;22592;-86
2021/10/31 10:36:27;;;;;;;4.30;4.00;;;16.10;99.90;;;;;;4268287;28;9999940;-84
2021/10/31 10:39:08;;;;;;;4.53;4.13;;;16.20;99.90;;;;;;4955918;28;20674;-84
2021/10/31 10:41:42;;;;;;;4.77;3.87;;;16.00;99.90;;;;;;4956337;28;20459;-85
2021/10/31 10:44:48;;;;;;;3.50;3.20;;;15.80;99.90;;;;;;4912430;28;20554;-84
2021/10/31 10:47:57;;;;;;;3.80;3.50;;;15.90;99.90;;;;;;4944203;28;20486;-84
2021/10/31 10:50:34;;;;;;;3.90;3.60;;;16.00;99.90;;;;;;4948659;28;20463;-84
2021/10/31 10:53:19;;;;;;;4.00;3.70;;;16.10;99.90;;;;;;4981655;28;20455;-84
2021/10/31 10:55:52;;;;;;;4.40;4.00;;;16.30;99.90;;;;;;4965216;28;20443;-84
2021/10/31 10:58:19;;;;;;;3.77;3.57;;;16.60;99.90;;;;;;4980409;28;20479;-84
2021/10/31 11:00:56;;;;;;;3.37;3.17;;;16.60;99.90;;;;;;4959157;28;20559;-85
2021/10/31 11:03:40;;;;;;;3.30;3.10;;;16.60;99.90;;;;;;4960947;28;20444;-84
2021/10/31 11:06:12;;;;;;;3.20;2.90;;;16.50;99.90;;;;;;4945336;28;20487;-85
2021/10/31 11:09:10;;;;;;;3.50;3.20;;;16.60;99.90;;;;;;4943654;28;21138;-84
2021/10/31 11:11:47;;;;;;;3.20;2.90;;;16.70;99.90;;;;;;4963965;28;20455;-84
2021/10/31 11:33:34;;;;;;;3.07;2.63;;;16.50;99.90;;;;;;5064118;23;20491;-84
2021/10/31 11:36:02;;;;;;;3.97;3.30;;;16.60;99.90;;;;;;4950838;28;20768;-85
2021/10/31 11:38:40;;;;;;;;;;;;;;;;;;;;;
2021/10/31 11:41:24;;;;;;;3.23;2.93;;;16.80;99.90;;;;;;4963446;28;20510;-85
2021/10/31 11:44:18;;;;;;;3.73;3.43;;;16.80;99.90;;;;;;4961040;28;20449;-87
2021/10/31 11:46:51;;;;;;;3.30;3.10;;;16.90;99.90;;;;;;4944589;28;20479;-84
2021/10/31 11:49:17;;;;;;;3.47;3.17;;;16.60;99.90;;;;;;4944573;28;20483;-86
2021/10/31 11:55:28;;;;;;;3.03;2.83;;;16.80;99.90;;;;;;4907432;28;20443;-84
2021/10/31 11:58:23;;;;;;;3.10;2.90;;;16.90;99.90;;;;;;4954896;28;20483;-84
2021/10/31 12:00:59;;;;;;;3.80;2.70;;;17.00;99.90;;;;;;4951543;28;20488;-85
2021/10/31 12:03:33;;;;;;;3.20;2.73;;;17.10;99.90;;;;;;4961123;28;22923;-86
2021/10/31 12:06:21;;;;;;;3.33;3.03;;;17.20;99.90;;;;;;4885257;29;20969;-84
2021/10/31 12:08:48;;;;;;;3.27;2.97;;;17.30;99.90;;;;;;4864529;29;20471;-84
2021/10/31 12:22:23;;;;;;;3.40;2.93;;;17.00;99.90;;;;;;4981674;28;20425;-84
2021/10/31 12:25:16;;;;;;;3.70;2.70;;;16.70;99.90;;;;;;4978984;28;20585;-86
2021/10/31 12:27:50;;;;;;;2.70;2.50;;;16.70;99.90;;;;;;5019902;22;20506;-84
2021/10/31 12:30:21;;;;;;;2.40;2.20;;;16.50;99.90;;;;;;4964751;28;20561;-84
2021/10/31 12:32:49;;;;;;;2.97;2.77;;;16.70;99.90;;;;;;5049643;22;20552;-83
2021/10/31 12:35:35;;;;;;;3.93;2.37;;;17.20;99.90;;;;;;4960331;28;20464;-84
2021/10/31 12:38:19;;;;;;;2.67;2.47;;;17.40;99.90;;;;;;4945233;28;22609;-83
2021/10/31 12:41:07;;;;;;;2.20;2.10;;;17.60;99.90;;;;;;4923563;28;20452;-84
2021/10/31 12:43:46;;;;;;;3.17;2.10;;;17.60;99.90;;;;;;4926358;28;20488;-85
2021/10/31 12:46:28;;;;;;;3.33;2.30;;;17.60;99.90;;;;;;4922050;28;20468;-84
2021/10/31 12:48:59;;;;;;;2.40;2.20;;;17.50;99.90;;;;;;4940445;28;20479;-85
2021/10/31 12:52:08;;;;;;;2.37;2.17;;;17.60;99.90;;;;;;4928758;28;20460;-84
2021/10/31 12:54:37;;;;;;;5.23;2.97;;;17.50;99.90;;;;;;4926666;28;20456;-84
2021/10/31 12:57:11;;;;;;;2.20;2.00;;;17.50;99.90;;;;;;4925941;28;20500;-86
2021/10/31 12:59:46;;;;;;;2.23;2.10;;;17.20;99.90;;;;;;4936817;28;20445;-84
2021/10/31 13:02:15;;;;;;;2.83;2.63;;;17.30;99.90;;;;;;4924435;28;20441;-84
2021/10/31 13:05:00;;;;;;;2.70;2.50;;;17.40;99.90;;;;;;4940496;28;20476;-83
2021/10/31 13:07:38;;;;;;;2.43;2.20;;;17.50;99.90;;;;;;4925345;28;20567;-82
2021/10/31 13:10:28;;;;;;;2.27;2.17;;;17.70;99.90;;;;;;4924809;28;20452;-85
2021/10/31 13:13:06;;;;;;;2.60;2.40;;;17.60;99.90;;;;;;4942170;28;20517;-84
2021/10/31 13:15:36;;;;;;;2.20;2.10;;;17.50;99.90;;;;;;4941461;28;21080;-86
2021/10/31 13:18:20;;;;;;;2.43;2.23;;;17.40;99.90;;;;;;4940954;28;20479;-85
2021/10/31 13:20:59;;;;;;;2.73;2.53;;;17.70;99.90;;;;;;4960887;28;20490;-84
2021/10/31 13:23:29;;;;;;;2.03;1.83;;;17.80;99.90;;;;;;4944599;28;20466;-83
2021/10/31 13:26:01;;;;;;;1.77;1.67;;;17.80;99.90;;;;;;4944078;28;20493;-85
2021/10/31 13:28:33;;;;;;;2.40;2.10;;;17.70;99.90;;;;;;4942773;28;20570;-85
2021/10/31 13:31:10;;;;;;;2.07;1.97;;;17.70;99.90;;;;;;4941431;28;20531;-83
2021/10/31 13:33:39;;;;;;;2.20;2.10;;;17.70;99.90;;;;;;4946406;28;20447;-83
2021/10/31 13:36:18;;;;;;;2.00;1.90;;;17.60;99.90;;;;;;5033271;23;20764;-83
2021/10/31 13:39:16;;;;;;;3.83;2.30;;;17.80;99.90;;;;;;4942199;28;20479;-83
2021/10/31 13:41:49;;;;;;;5.03;2.20;;;18.00;99.90;;;;;;4941161;28;20551;-85
2021/10/31 13:44:23;;;;;;;2.67;1.83;;;17.80;99.90;;;;;;4958447;28;20463;-83
2021/10/31 13:47:16;;;;;;;3.13;2.77;;;17.60;99.90;;;;;;4953044;28;20470;-84
2021/10/31 13:50:04;;;;;;;2.37;2.27;;;17.70;99.90;;;;;;4979826;28;20458;-85
2021/10/31 13:53:16;;;;;;;2.23;2.00;;;17.80;99.90;;;;;;4961242;28;20869;-85
2021/10/31 13:55:51;;;;;;;2.30;1.90;;;17.90;99.90;;;;;;4977796;28;20951;-86
2021/10/31 13:58:38;;;;;;;2.87;1.53;;;18.00;99.90;;;;;;4945570;28;20474;-84
2021/10/31 14:01:30;;;;;;;2.00;1.60;;;17.90;99.90;;;;;;4970104;28;20473;-85
2021/10/31 14:04:46;;;;;;;2.77;1.80;;;17.90;99.90;;;;;;4964080;28;20449;-85
2021/10/31 14:08:13;;;;;;;1.80;1.70;;;17.60;99.90;;;;;;4960627;28;20466;-84
2021/10/31 14:11:19;;;;;;;1.87;1.60;;;17.90;99.90;;;;;;4965056;28;21221;-84
2021/10/31 14:14:34;;;;;;;3.80;1.70;;;17.80;99.90;;;;;;4888759;29;20507;-84
2021/10/31 14:17:48;;;;;;;2.73;2.13;;;17.90;99.90;;;;;;4897463;29;20483;-85
2021/10/31 14:21:00;;;;;;;2.83;1.90;;;18.00;99.90;;;;;;4876373;29;20518;-83
2021/10/31 14:24:08;;;;;;;1.97;1.50;;;17.90;99.90;;;;;;4877134;29;20909;-85
2021/10/31 14:27:41;;;;;;;2.07;1.40;;;17.90;99.90;;;;;;4881743;29;20457;-83
2021/10/31 14:33:44;;;;;;;1.63;1.30;;;17.90;99.90;;;;;;4837393;28;20545;-84
2021/10/31 14:37:16;;;;;;;1.27;1.17;;;18.20;99.90;;;;;;4958641;22;20598;-86
2021/10/31 14:40:35;;;;;;;3.80;1.20;;;18.10;99.90;;;;;;4960164;28;20553;-84
2021/10/31 14:43:57;;;;;;;;;;;;;;;;;;;;;
2021/10/31 14:46:54;;;;;;;1.10;1.00;;;18.00;99.90;;;;;;4896437;29;20519;-84
2021/10/31 14:53:54;;;;;;;4.50;2.87;;;18.00;99.90;;;;;;4877734;29;20549;-83
2021/10/31 15:00:02;;;;;;;1.00;1.00;;;18.10;99.90;;;;;;4899662;29;20454;-84
2021/10/31 15:02:58;;;;;;;1.17;1.07;;;18.10;99.90;;;;;;4872395;29;20493;-82
2021/10/31 15:08:45;;;;;;;1.17;1.07;;;18.10;99.90;;;;;;4903459;29;20443;-85
2021/10/31 15:11:20;;;;;;;1.00;1.00;;;18.20;99.90;;;;;;4902962;29;20454;-84
2021/10/31 15:13:50;;;;;;;1.33;1.23;;;18.10;99.90;;;;;;4885497;29;20495;-84
2021/10/31 15:16:20;;;;;;;1.00;1.00;;;18.00;99.90;;;;;;4884692;29;20575;-83
2021/10/31 15:19:22;;;;;;;;;;;;;;;;;;;;;
2021/10/31 15:21:52;;;;;;;1.67;1.40;;;18.10;99.90;;;;;;4863462;29;20473;-85
2021/10/31 15:24:25;;;;;;;0.90;0.83;;;18.00;99.90;;;;;;4964755;28;20447;-82
2021/10/31 15:27:10;;;;;;;2.30;1.30;;;17.80;99.90;;;;;;4988637;22;20866;-83
2021/10/31 15:29:37;;;;;;;1.27;1.17;;;17.90;99.90;;;;;;4951867;28;20446;-84
2021/10/31 15:32:07;;;;;;;1.50;1.40;;;17.80;99.90;;;;;;4916968;28;20445;-84
2021/10/31 15:34:44;;;;;;;1.63;1.00;;;17.80;99.90;;;;;;4972674;28;20464;-84
2021/10/31 15:37:20;;;;;;;1.67;1.50;;;18.00;99.90;;;;;;4985537;28;20466;-82
2021/10/31 15:39:47;;;;;;;1.40;1.30;;;18.00;99.90;;;;;;4964502;28;20510;-83